Time;durP1;ratioP1;P1;durP2;ratioP2;P2;SDS_P1;SDS_P2;PMS_P1;PMS_P2;Temp;Humidity;BMP_temperature;BMP_pressure;BME280_temperature;BME280_humidity;BME280_pressure;Samples;Min_cycle;Max_cycle;Signal;HPM_P1;HPM_P2
2023/10/19 07:45:15;;;;;;;11.02;8.48;;;;;;;;;;6237541;22;20120;-89
2023/10/19 07:47:41;;;;;;;12.90;9.98;;;;;;;;;;6278010;22;20410;-89
2023/10/19 09:22:22;;;;;;;18.67;14.13;;;;;;;;;;6276455;22;20081;-92
2023/10/19 09:24:55;;;;;;;17.20;13.20;;;;;;;;;;6251756;22;20018;-88
2023/10/19 09:27:21;;;;;;;19.95;14.43;;;;;;;;;;6251613;22;20018;-90
2023/10/19 09:29:53;;;;;;;21.88;15.23;;;;;;;;;;6251601;22;20094;-89
2023/10/19 09:32:19;;;;;;;19.95;14.15;;;;;;;;;;6251089;22;20015;-89
2023/10/19 09:34:45;;;;;;;22.00;15.90;;;;;;;;;;6251428;22;20007;-89
2023/10/19 09:37:12;;;;;;;20.67;16.02;;;;;;;;;;6278848;22;20008;-91
2023/10/19 09:39:39;;;;;;;21.08;14.70;;;;;;;;;;6251730;22;20010;-93
2023/10/19 09:42:16;;;;;;;23.15;16.35;;;;;;;;;;6252143;22;20004;-91
2023/10/19 09:44:48;;;;;;;21.55;15.98;;;;;;;;;;6251524;22;20054;-90
2023/10/19 09:47:41;;;;;;;20.20;14.82;;;;;;;;;;6251587;22;20007;-89
2023/10/19 09:50:07;;;;;;;21.90;15.65;;;;;;;;;;6246680;22;20006;-89
2023/10/19 09:52:37;;;;;;;22.17;15.48;;;;;;;;;;6252104;22;20004;-90
2023/10/19 09:55:23;;;;;;;19.70;15.20;;;;;;;;;;6251530;22;20081;-90
2023/10/19 09:58:21;;;;;;;17.67;14.27;;;;;;;;;;6251259;22;20007;-89
2023/10/19 10:00:51;;;;;;;18.83;14.30;;;;;;;;;;6255418;22;20019;-89
2023/10/19 10:03:44;;;;;;;22.00;15.35;;;;;;;;;;6251591;22;20003;-89
2023/10/19 10:06:12;;;;;;;23.60;15.35;;;;;;;;;;6278069;22;20441;-90
2023/10/19 10:08:39;;;;;;;19.92;15.45;;;;;;;;;;6252141;22;20010;-90
2023/10/19 10:11:37;;;;;;;18.90;14.50;;;;;;;;;;6252056;22;20045;-91
2023/10/19 10:14:24;;;;;;;19.63;16.02;;;;;;;;;;6187131;22;20007;-92
2023/10/19 10:17:01;;;;;;;19.02;14.45;;;;;;;;;;6252526;22;20007;-93
2023/10/19 10:19:26;;;;;;;20.85;14.52;;;;;;;;;;6253058;22;20037;-93
2023/10/19 10:22:11;;;;;;;20.25;15.38;;;;;;;;;;6253423;22;20031;-93
2023/10/19 10:24:41;;;;;;;21.00;14.43;;;;;;;;;;6247071;23;20027;-90
2023/10/19 10:27:06;;;;;;;19.23;14.35;;;;;;;;;;6247411;23;20427;-88
2023/10/19 10:29:32;;;;;;;21.10;13.68;;;;;;;;;;6248378;22;20027;-89
2023/10/19 10:32:01;;;;;;;24.67;15.00;;;;;;;;;;6247046;23;20008;-91
2023/10/19 10:34:33;;;;;;;19.65;13.80;;;;;;;;;;6247674;22;20026;-88
2023/10/19 10:37:03;;;;;;;18.98;14.48;;;;;;;;;;6247472;22;20000;-91
2023/10/19 10:39:34;;;;;;;19.10;13.38;;;;;;;;;;6247280;22;20034;-90
2023/10/19 10:42:02;;;;;;;19.50;13.55;;;;;;;;;;6245994;23;20450;-91
2023/10/19 10:44:48;;;;;;;22.30;14.00;;;;;;;;;;6248460;22;20008;-90
2023/10/19 10:47:29;;;;;;;16.77;12.95;;;;;;;;;;6247131;23;20008;-94
2023/10/19 10:49:59;;;;;;;25.15;16.70;;;;;;;;;;6246517;23;20050;-92
2023/10/19 10:52:34;;;;;;;;;;;;;;;;;;6248583;22;20482;-92
2023/10/19 10:55:10;;;;;;;18.20;13.27;;;;;;;;;;6246151;23;19904;-90
2023/10/19 10:57:36;;;;;;;21.40;15.02;;;;;;;;;;6247633;22;20000;-91
2023/10/19 11:00:19;;;;;;;21.83;14.63;;;;;;;;;;6247349;22;19999;-91
2023/10/19 11:02:47;;;;;;;20.88;14.25;;;;;;;;;;6247328;22;20458;-91
2023/10/19 11:05:14;;;;;;;22.25;14.68;;;;;;;;;;6247232;22;20007;-90
2023/10/19 11:08:09;;;;;;;21.95;15.65;;;;;;;;;;6246226;23;20004;-91
2023/10/19 11:10:35;;;;;;;20.65;14.52;;;;;;;;;;6242804;23;20083;-90
2023/10/19 11:13:09;;;;;;;22.88;15.43;;;;;;;;;;6246399;23;20015;-90
2023/10/19 11:15:39;;;;;;;22.10;15.75;;;;;;;;;;6247434;22;20004;-91
2023/10/19 11:18:09;;;;;;;21.88;15.25;;;;;;;;;;6245767;23;20008;-91
2023/10/19 11:20:35;;;;;;;24.40;16.35;;;;;;;;;;6247048;22;19996;-90
2023/10/19 11:23:01;;;;;;;20.73;15.15;;;;;;;;;;6254861;22;20034;-91
2023/10/19 11:25:31;;;;;;;24.25;16.15;;;;;;;;;;6250727;22;20304;-90
2023/10/19 11:28:01;;;;;;;22.23;15.95;;;;;;;;;;6277634;22;20004;-91
2023/10/19 11:30:28;;;;;;;25.42;18.00;;;;;;;;;;6250851;22;20000;-91
2023/10/19 11:32:59;;;;;;;23.80;16.77;;;;;;;;;;6278551;22;20004;-91
2023/10/19 11:35:27;;;;;;;22.65;16.55;;;;;;;;;;6252068;22;20054;-91
2023/10/19 11:37:54;;;;;;;20.02;14.98;;;;;;;;;;6277249;22;20098;-88
2023/10/19 11:40:21;;;;;;;20.63;15.68;;;;;;;;;;6251748;22;20015;-89
2023/10/19 11:42:52;;;;;;;22.60;15.90;;;;;;;;;;6252393;22;20320;-93
2023/10/19 16:58:47;;;;;;;14.80;12.05;;;;;;;;;;6219046;23;20012;-83
2023/10/19 17:01:14;;;;;;;16.45;13.80;;;;;;;;;;6248239;23;20079;-83
2023/10/19 17:03:43;;;;;;;14.48;12.25;;;;;;;;;;6246487;23;20004;-83
2023/10/19 17:06:09;;;;;;;14.27;11.65;;;;;;;;;;6247868;22;20146;-84
2023/10/19 17:08:35;;;;;;;12.27;10.98;;;;;;;;;;6248239;22;20412;-83
2023/10/19 17:11:04;;;;;;;14.93;12.35;;;;;;;;;;6248206;22;20446;-83
2023/10/19 17:13:30;;;;;;;14.95;12.23;;;;;;;;;;6247952;22;20018;-83
2023/10/19 17:15:56;;;;;;;14.32;12.82;;;;;;;;;;6247738;22;20399;-83
2023/10/19 17:18:22;;;;;;;14.85;12.27;;;;;;;;;;6247963;22;20062;-83
2023/10/19 17:20:48;;;;;;;12.18;10.48;;;;;;;;;;6248049;22;20004;-84
2023/10/19 17:23:13;;;;;;;10.88;9.73;;;;;;;;;;6246414;23;20004;-83
2023/10/19 17:25:40;;;;;;;11.43;10.07;;;;;;;;;;6248020;23;20016;-83
2023/10/19 17:28:06;;;;;;;14.40;10.23;;;;;;;;;;6248389;22;20023;-83
2023/10/19 17:30:34;;;;;;;12.43;10.57;;;;;;;;;;6247770;22;20315;-83
2023/10/19 17:33:00;;;;;;;12.90;10.40;;;;;;;;;;6247895;22;20000;-82
2023/10/19 17:35:25;;;;;;;14.45;11.18;;;;;;;;;;6248377;22;20000;-83
2023/10/19 17:37:50;;;;;;;11.63;10.43;;;;;;;;;;6247780;22;20000;-85
2023/10/19 17:40:16;;;;;;;12.57;10.85;;;;;;;;;;6248366;22;20004;-84
2023/10/19 17:42:42;;;;;;;12.30;10.38;;;;;;;;;;6248473;22;20067;-83
2023/10/19 17:45:09;;;;;;;11.85;10.65;;;;;;;;;;6248362;22;20005;-83
2023/10/19 17:47:34;;;;;;;11.20;9.57;;;;;;;;;;6248001;22;20005;-84
2023/10/19 17:50:04;;;;;;;12.55;10.25;;;;;;;;;;6248084;23;20000;-85
2023/10/19 17:52:30;;;;;;;11.77;10.52;;;;;;;;;;6246335;23;20001;-88
2023/10/19 17:54:55;;;;;;;12.10;9.98;;;;;;;;;;6246373;23;20007;-85
2023/10/19 17:57:21;;;;;;;10.30;8.90;;;;;;;;;;6246422;23;20014;-85
2023/10/19 17:59:47;;;;;;;9.88;8.88;;;;;;;;;;6247807;23;20312;-86
2023/10/19 18:02:12;;;;;;;11.57;9.40;;;;;;;;;;6247776;23;20045;-85
2023/10/19 18:04:38;;;;;;;16.50;14.80;;;;;;;;;;6220841;23;20015;-86
2023/10/19 18:07:04;;;;;;;14.30;11.82;;;;;;;;;;6247309;23;20332;-86
2023/10/19 18:09:31;;;;;;;13.50;11.43;;;;;;;;;;6221301;23;20007;-86
2023/10/19 18:11:57;;;;;;;14.57;11.27;;;;;;;;;;6247966;23;20012;-85
2023/10/19 18:14:22;;;;;;;14.23;11.48;;;;;;;;;;6220397;23;20442;-84
2023/10/19 18:16:48;;;;;;;12.02;10.63;;;;;;;;;;6248050;23;20084;-85
2023/10/19 18:19:13;;;;;;;11.27;10.05;;;;;;;;;;6247470;23;20004;-84
2023/10/19 18:21:39;;;;;;;10.02;9.02;;;;;;;;;;6220456;23;20011;-85
2023/10/19 18:24:08;;;;;;;9.45;8.55;;;;;;;;;;6247271;23;20007;-84
2023/10/19 18:26:36;;;;;;;10.55;8.82;;;;;;;;;;6220311;23;20024;-84
2023/10/19 18:29:03;;;;;;;9.02;8.10;;;;;;;;;;6247060;23;20406;-86
2023/10/19 18:31:30;;;;;;;10.35;9.15;;;;;;;;;;6247537;23;20420;-85
2023/10/19 18:33:59;;;;;;;11.57;10.23;;;;;;;;;;6247402;23;20469;-85
2023/10/19 18:36:25;;;;;;;12.32;10.18;;;;;;;;;;6247095;23;20024;-84
2023/10/19 18:38:50;;;;;;;13.07;10.57;;;;;;;;;;6247296;23;20000;-84
2023/10/19 18:41:16;;;;;;;10.43;9.43;;;;;;;;;;6247135;23;20439;-87
2023/10/19 18:43:42;;;;;;;10.93;9.32;;;;;;;;;;6220164;23;20003;-86
2023/10/19 18:46:11;;;;;;;10.90;8.95;;;;;;;;;;6220388;23;20012;-84
2023/10/19 18:48:36;;;;;;;9.52;8.52;;;;;;;;;;6247958;23;20004;-84
2023/10/19 18:51:07;;;;;;;11.70;9.38;;;;;;;;;;6247569;23;20008;-85
2023/10/19 18:53:34;;;;;;;11.05;9.60;;;;;;;;;;6247000;23;20000;-85
2023/10/19 18:56:00;;;;;;;10.35;9.27;;;;;;;;;;6219952;23;20057;-84
2023/10/19 18:58:26;;;;;;;13.95;10.35;;;;;;;;;;6261074;22;20043;-85
2023/10/19 19:01:01;;;;;;;11.13;9.10;;;;;;;;;;6277793;22;20082;-86
2023/10/19 19:03:28;;;;;;;8.88;7.97;;;;;;;;;;6277996;22;20426;-86
2023/10/19 19:05:58;;;;;;;11.52;8.77;;;;;;;;;;6278988;22;20000;-85
2023/10/19 19:08:28;;;;;;;10.50;7.57;;;;;;;;;;6277627;22;20004;-85
2023/10/19 19:10:57;;;;;;;8.60;7.78;;;;;;;;;;6277437;22;20007;-85
2023/10/19 19:13:23;;;;;;;8.50;7.60;;;;;;;;;;6277608;22;20430;-85
2023/10/19 19:15:50;;;;;;;8.73;7.82;;;;;;;;;;6277338;22;20035;-86
2023/10/19 19:18:16;;;;;;;7.90;7.10;;;;;;;;;;6277446;22;20053;-86
2023/10/19 19:20:42;;;;;;;10.18;8.45;;;;;;;;;;6277517;22;20424;-86
2023/10/19 19:23:08;;;;;;;9.50;7.40;;;;;;;;;;6277512;22;20023;-86
2023/10/19 19:25:34;;;;;;;7.65;6.90;;;;;;;;;;6250005;22;20033;-86
2023/10/19 19:28:00;;;;;;;9.02;7.13;;;;;;;;;;6277525;22;19999;-85
2023/10/19 19:30:25;;;;;;;9.45;7.80;;;;;;;;;;6277462;22;19995;-85
2023/10/19 19:32:51;;;;;;;8.10;7.22;;;;;;;;;;6277462;22;20004;-86
2023/10/19 19:35:17;;;;;;;7.40;6.70;;;;;;;;;;6250199;22;20061;-85
2023/10/19 19:37:44;;;;;;;8.50;6.60;;;;;;;;;;6277489;22;20036;-86
2023/10/19 19:40:12;;;;;;;8.20;7.40;;;;;;;;;;6250445;22;20323;-86
2023/10/19 19:42:46;;;;;;;9.07;8.15;;;;;;;;;;6277679;22;20126;-85
2023/10/19 19:45:13;;;;;;;10.75;8.18;;;;;;;;;;6277334;22;20419;-86
2023/10/19 19:47:40;;;;;;;8.35;7.10;;;;;;;;;;6277355;22;20003;-86
2023/10/19 19:50:07;;;;;;;9.95;8.98;;;;;;;;;;6277223;22;20000;-86
2023/10/19 19:52:37;;;;;;;12.75;10.80;;;;;;;;;;6277181;22;20070;-87
2023/10/19 19:55:07;;;;;;;15.35;11.40;;;;;;;;;;6278222;22;20374;-87
2023/10/19 19:57:33;;;;;;;14.15;11.98;;;;;;;;;;6250155;22;20087;-86
2023/10/19 19:59:59;;;;;;;14.05;11.95;;;;;;;;;;6277401;22;20003;-85
2023/10/19 20:02:25;;;;;;;12.85;11.35;;;;;;;;;;6277664;22;20335;-85
2023/10/19 20:04:51;;;;;;;12.75;11.20;;;;;;;;;;6277208;22;19996;-85
2023/10/19 20:07:17;;;;;;;14.07;11.73;;;;;;;;;;6277126;22;20312;-86
2023/10/19 20:09:42;;;;;;;14.30;10.65;;;;;;;;;;6277568;22;20000;-85
2023/10/19 20:12:10;;;;;;;11.40;10.18;;;;;;;;;;6277761;22;20411;-83
2023/10/19 20:14:36;;;;;;;11.02;9.93;;;;;;;;;;6277558;22;20400;-82
2023/10/19 20:17:01;;;;;;;10.80;9.70;;;;;;;;;;6277098;22;20003;-85
2023/10/19 20:19:27;;;;;;;11.95;9.85;;;;;;;;;;6250058;22;20327;-82
2023/10/19 20:21:52;;;;;;;10.60;9.40;;;;;;;;;;6277829;22;19999;-83
2023/10/19 20:24:18;;;;;;;9.80;8.70;;;;;;;;;;6277154;22;20000;-84
2023/10/19 20:26:43;;;;;;;10.18;8.98;;;;;;;;;;6276966;22;20003;-85
2023/10/19 20:29:08;;;;;;;8.98;7.93;;;;;;;;;;6277821;22;20082;-82
2023/10/19 20:31:34;;;;;;;6.10;5.50;;;;;;;;;;6279177;22;20034;-82
2023/10/19 20:34:00;;;;;;;5.40;4.90;;;;;;;;;;6278833;22;20149;-82
2023/10/19 20:36:25;;;;;;;6.18;5.57;;;;;;;;;;6279045;22;20006;-83
2023/10/19 20:38:53;;;;;;;5.38;4.78;;;;;;;;;;6279204;22;20079;-85
2023/10/19 20:41:18;;;;;;;5.18;4.68;;;;;;;;;;6252740;22;20004;-83
2023/10/19 20:43:44;;;;;;;5.60;5.03;;;;;;;;;;6279015;22;20008;-83
2023/10/19 20:46:09;;;;;;;5.20;4.70;;;;;;;;;;6278910;22;20373;-83
2023/10/19 20:48:35;;;;;;;6.55;5.15;;;;;;;;;;6251970;22;20011;-85
2023/10/19 20:51:02;;;;;;;6.90;5.63;;;;;;;;;;6278838;22;20011;-83
2023/10/19 20:53:29;;;;;;;7.80;6.70;;;;;;;;;;6279111;22;20322;-87
2023/10/19 20:55:59;;;;;;;10.10;9.00;;;;;;;;;;6278929;22;20427;-83
2023/10/19 20:58:26;;;;;;;10.80;8.93;;;;;;;;;;6278755;22;20489;-85
2023/10/19 21:00:51;;;;;;;11.38;10.15;;;;;;;;;;6278773;22;20007;-85
2023/10/19 21:03:17;;;;;;;12.45;10.05;;;;;;;;;;6278823;22;20331;-85
2023/10/19 21:05:42;;;;;;;11.07;9.48;;;;;;;;;;6279206;22;20026;-84
2023/10/19 21:08:07;;;;;;;11.93;9.73;;;;;;;;;;6278766;22;20016;-86
2023/10/19 21:10:34;;;;;;;11.95;10.57;;;;;;;;;;6278689;22;20004;-86
2023/10/19 21:12:59;;;;;;;11.13;9.93;;;;;;;;;;6278888;22;20038;-84
2023/10/19 21:15:25;;;;;;;11.63;10.43;;;;;;;;;;6278667;22;20003;-84
2023/10/19 21:17:51;;;;;;;11.52;9.45;;;;;;;;;;6278709;22;20011;-84
2023/10/19 21:20:20;;;;;;;10.93;9.25;;;;;;;;;;6278438;22;20008;-84
2023/10/19 21:22:48;;;;;;;11.85;9.07;;;;;;;;;;6278557;22;20411;-86
2023/10/19 21:25:15;;;;;;;11.18;8.70;;;;;;;;;;6278464;22;20327;-83
2023/10/19 21:27:42;;;;;;;8.60;7.80;;;;;;;;;;6278739;22;20007;-84
2023/10/19 21:30:12;;;;;;;8.32;7.53;;;;;;;;;;6278351;22;20014;-85
2023/10/19 21:32:41;;;;;;;8.75;7.85;;;;;;;;;;6278396;22;20030;-87
2023/10/19 21:35:07;;;;;;;8.85;7.93;;;;;;;;;;6278563;22;20000;-86
2023/10/19 21:37:33;;;;;;;8.50;7.70;;;;;;;;;;6251229;22;20088;-86
2023/10/19 21:39:59;;;;;;;10.13;8.15;;;;;;;;;;6279108;22;20100;-86
2023/10/19 21:42:25;;;;;;;9.68;8.68;;;;;;;;;;6278264;22;20407;-87
2023/10/19 21:44:51;;;;;;;11.43;8.10;;;;;;;;;;6251203;22;20312;-86
2023/10/19 21:47:18;;;;;;;9.18;8.10;;;;;;;;;;6278243;22;20094;-84
2023/10/19 21:49:50;;;;;;;11.80;8.80;;;;;;;;;;6278421;22;20415;-87
2023/10/19 21:52:23;;;;;;;9.77;7.25;;;;;;;;;;6278428;22;20004;-86
2023/10/19 21:54:50;;;;;;;8.63;7.70;;;;;;;;;;6251060;22;20004;-86
2023/10/19 21:57:16;;;;;;;9.85;8.27;;;;;;;;;;6278600;22;20070;-87
2023/10/19 21:59:43;;;;;;;9.07;8.18;;;;;;;;;;6278137;22;20396;-86
2023/10/19 22:02:09;;;;;;;7.85;7.03;;;;;;;;;;6278274;22;20075;-85
2023/10/19 22:04:35;;;;;;;9.82;7.88;;;;;;;;;;6278743;22;20000;-87
2023/10/19 22:07:02;;;;;;;9.73;8.15;;;;;;;;;;6278138;22;20008;-86
2023/10/19 22:09:30;;;;;;;10.88;8.90;;;;;;;;;;6278092;22;20010;-86
2023/10/19 22:11:57;;;;;;;8.00;7.15;;;;;;;;;;6251173;22;20112;-86
2023/10/19 22:14:23;;;;;;;9.05;7.28;;;;;;;;;;6250815;22;20022;-86
2023/10/19 22:16:48;;;;;;;8.25;7.00;;;;;;;;;;6278427;22;20004;-87
2023/10/19 22:19:13;;;;;;;10.63;9.20;;;;;;;;;;6278361;22;19999;-87
2023/10/19 22:21:39;;;;;;;10.82;9.73;;;;;;;;;;6278169;22;20037;-87
2023/10/19 22:24:07;;;;;;;9.65;8.50;;;;;;;;;;6251039;22;20000;-87
2023/10/19 22:26:33;;;;;;;9.98;8.68;;;;;;;;;;6251578;22;20018;-87
2023/10/19 22:28:58;;;;;;;9.20;8.13;;;;;;;;;;6251682;22;20008;-86
2023/10/19 22:31:24;;;;;;;9.00;7.88;;;;;;;;;;6251234;22;20010;-87
2023/10/19 22:33:50;;;;;;;9.73;8.45;;;;;;;;;;6251099;22;20008;-87
2023/10/19 22:36:15;;;;;;;10.90;8.07;;;;;;;;;;6278103;22;20007;-86
2023/10/19 22:38:41;;;;;;;8.82;7.28;;;;;;;;;;6277928;22;20007;-86
2023/10/19 22:41:06;;;;;;;8.73;6.75;;;;;;;;;;6277886;22;20079;-88
